Time;durP1;ratioP1;P1;durP2;ratioP2;P2;SDS_P1;SDS_P2;PMS_P1;PMS_P2;Temp;Humidity;BMP_temperature;BMP_pressure;BME280_temperature;BME280_humidity;BME280_pressure;Samples;Min_cycle;Max_cycle;Signal;HPM_P1;HPM_P2
2021/01/05 00:00:00;;;;;;;21.38;11.35;;;;;;;2.16;75.93;101238.41;692648;28;45250;-63
2021/01/05 00:00:23;;;;;;;23.37;11.73;;;;;;;2.14;75.79;101229.69;693691;28;21652;-63
2021/01/05 00:00:44;;;;;;;25.00;12.05;;;;;;;2.16;75.77;101236.63;692063;28;63594;-62
2021/01/05 00:01:05;;;;;;;25.27;11.88;;;;;;;2.08;75.83;101222.97;692564;28;46396;-63
2021/01/05 00:01:27;;;;;;;21.30;11.63;;;;;;;2.16;75.89;101233.94;693404;28;22410;-64
2021/01/05 00:01:49;;;;;;;21.75;11.63;;;;;;;2.15;75.75;101229.56;693015;28;46276;-64
2021/01/05 00:02:10;;;;;;;21.63;11.33;;;;;;;2.16;76.13;101230.41;693855;28;23186;-64
2021/01/05 00:02:31;;;;;;;24.88;12.15;;;;;;;2.17;75.85;101240.13;692890;28;46311;-63
2021/01/05 00:02:53;;;;;;;21.05;12.10;;;;;;;2.15;75.81;101237.56;693483;28;18050;-64
2021/01/05 00:03:14;;;;;;;22.80;11.80;;;;;;;2.15;75.85;101234.91;692854;28;21320;-64
2021/01/05 00:03:36;;;;;;;23.23;11.50;;;;;;;2.14;75.45;101238.50;693500;28;23496;-64
2021/01/05 00:03:57;;;;;;;23.70;11.82;;;;;;;2.15;75.80;101234.91;690170;28;44564;-64
2021/01/05 00:04:19;;;;;;;23.27;12.23;;;;;;;2.14;75.76;101235.84;690673;28;22261;-64
2021/01/05 00:04:40;;;;;;;23.70;11.75;;;;;;;2.15;75.73;101236.72;690905;28;22367;-64
2021/01/05 00:05:01;;;;;;;23.90;11.57;;;;;;;2.16;75.93;101241.06;688637;28;45094;-64
2021/01/05 00:05:23;;;;;;;25.20;11.63;;;;;;;2.15;75.81;101234.06;687115;28;22746;-64
2021/01/05 00:05:45;;;;;;;22.55;12.00;;;;;;;2.15;75.80;101236.72;687682;28;44339;-64
2021/01/05 00:06:07;;;;;;;20.50;11.20;;;;;;;2.15;75.96;101242.91;689634;28;46329;-64
2021/01/05 00:06:28;;;;;;;21.92;11.48;;;;;;;2.16;75.92;101235.75;689996;28;46334;-64
2021/01/05 00:06:49;;;;;;;24.40;12.20;;;;;;;2.16;75.84;101235.75;691011;28;23400;-64
2021/01/05 00:07:12;;;;;;;26.30;11.68;;;;;;;2.17;75.82;101238.28;691964;28;914;-64
2021/01/05 00:07:34;;;;;;;26.17;11.75;;;;;;;2.15;75.85;101232.25;693082;28;35684;-63
2021/01/05 00:07:55;;;;;;;20.92;11.25;;;;;;;2.15;75.78;101234.06;693001;28;46283;-64
2021/01/05 00:08:16;;;;;;;23.77;12.02;;;;;;;2.16;75.75;101233.94;693889;28;23571;-63
2021/01/05 00:08:38;;;;;;;20.85;10.95;;;;;;;2.15;75.82;101234.91;694030;28;23361;-63
2021/01/05 00:09:00;;;;;;;23.48;11.80;;;;;;;2.16;75.75;101239.28;692298;28;57191;-64
2021/01/05 00:09:23;;;;;;;24.13;11.77;;;;;;;2.16;75.83;101233.94;693600;28;23447;-63
2021/01/05 00:09:44;;;;;;;19.90;11.50;;;;;;;2.15;75.78;101237.56;692095;28;70151;-64
2021/01/05 00:10:07;;;;;;;21.05;12.00;;;;;;;2.15;75.81;101239.38;692795;28;23444;-64
2021/01/05 00:10:29;;;;;;;24.27;11.38;;;;;;;2.16;75.75;101241.94;692213;28;70187;-64
2021/01/05 00:10:50;;;;;;;22.52;10.82;;;;;;;2.16;75.72;101233.94;691983;28;46308;-64
2021/01/05 00:11:11;;;;;;;20.10;10.90;;;;;;;2.15;75.74;101234.91;693322;28;24468;-64
2021/01/05 00:11:32;;;;;;;23.35;11.52;;;;;;;2.16;75.78;101233.94;692541;28;19153;-64
2021/01/05 00:11:55;;;;;;;21.90;11.90;;;;;;;2.16;75.73;101233.94;692709;28;45164;-64
2021/01/05 00:12:17;;;;;;;20.20;10.90;;;;;;;2.16;75.75;101230.41;689868;28;34466;-63
2021/01/05 00:12:38;;;;;;;21.27;11.73;;;;;;;2.15;nan;101231.41;689764;28;45336;-64
2021/01/05 00:13:00;;;;;;;22.23;11.82;;;;;;;2.15;75.68;101237.56;689829;28;45516;-63
2021/01/05 00:13:21;;;;;;;24.13;11.70;;;;;;;2.14;75.83;101235.00;690335;28;22463;-63
2021/01/05 00:13:43;;;;;;;25.33;11.73;;;;;;;2.15;75.85;101232.25;690135;28;44440;-64
2021/01/05 00:14:04;;;;;;;24.38;11.93;;;;;;;2.15;75.78;101234.06;691160;28;21517;-63
2021/01/05 00:14:26;;;;;;;22.63;11.98;;;;;;;2.15;75.64;101234.91;692511;28;46377;-63
2021/01/05 00:14:49;;;;;;;21.60;11.27;;;;;;;2.14;75.76;101235.84;694275;28;1489;-64
2021/01/05 00:15:13;;;;;;;21.88;11.07;;;;;;;2.14;75.78;101235.84;693526;28;22407;-63
2021/01/05 00:15:35;;;;;;;21.55;11.07;;;;;;;2.14;75.76;101237.69;691350;28;90868;-64
2021/01/05 00:15:56;;;;;;;19.70;11.00;;;;;;;2.14;75.87;101233.19;692587;28;47531;-64
2021/01/05 00:16:17;;;;;;;23.35;11.52;;;;;;;2.15;75.85;101236.72;693197;28;22408;-64
2021/01/05 00:16:39;;;;;;;23.02;11.40;;;;;;;2.15;75.78;101242.06;692677;28;45264;-64
2021/01/05 00:17:00;;;;;;;20.77;10.93;;;;;;;2.15;75.83;101234.06;693394;28;22431;-63
2021/01/05 00:17:22;;;;;;;23.42;11.25;;;;;;;2.14;75.83;101241.19;693050;28;22381;-64
2021/01/05 00:17:43;;;;;;;23.25;10.98;;;;;;;2.13;75.86;101234.16;692957;28;46337;-63
2021/01/05 00:18:05;;;;;;;23.50;11.00;;;;;;;2.14;75.74;101240.34;692955;28;46317;-63
2021/01/05 00:18:26;;;;;;;20.27;11.15;;;;;;;2.14;75.78;101235.84;693437;28;16515;-64
2021/01/05 00:18:48;;;;;;;23.05;11.57;;;;;;;2.14;75.82;101235.00;693665;28;15227;-63
2021/01/05 00:19:09;;;;;;;23.75;11.35;;;;;;;2.13;75.68;101231.50;691789;28;45278;-63
2021/01/05 00:19:30;;;;;;;21.73;10.80;;;;;;;2.14;75.96;101235.84;694078;28;13680;-63
2021/01/05 00:19:54;;;;;;;23.08;11.45;;;;;;;2.14;75.77;101238.50;693894;28;968;-63
2021/01/05 00:20:17;;;;;;;22.40;11.45;;;;;;;2.14;75.74;101237.69;692568;28;46498;-63
2021/01/05 00:20:38;;;;;;;21.92;10.95;;;;;;;2.12;75.74;101235.13;691087;28;90667;-63
2021/01/05 00:21:00;;;;;;;19.90;10.77;;;;;;;2.14;75.75;101238.50;693408;28;23357;-63
2021/01/05 00:21:25;;;;;;;23.13;11.32;;;;;;;2.15;75.79;101234.06;691364;28;23426;-63
2021/01/05 00:21:47;;;;;;;20.50;11.05;;;;;;;2.14;75.76;101238.50;689548;28;130711;-64
2021/01/05 00:22:08;;;;;;;21.42;10.98;;;;;;;2.14;75.59;101233.19;692688;28;21029;-64
2021/01/05 00:22:29;;;;;;;20.13;10.70;;;;;;;2.13;75.75;101231.50;692268;28;45211;-64
2021/01/05 00:22:51;;;;;;;20.13;11.30;;;;;;;2.15;75.52;101234.06;692870;28;23459;-64
2021/01/05 00:23:13;;;;;;;21.90;11.70;;;;;;;2.14;75.48;101235.00;692336;28;22400;-64
2021/01/05 00:23:34;;;;;;;20.60;11.05;;;;;;;2.14;75.66;101238.50;693469;28;44801;-64
2021/01/05 00:23:57;;;;;;;21.73;11.18;;;;;;;2.13;75.71;101235.97;693690;28;23237;-64
2021/01/05 00:24:19;;;;;;;19.02;10.75;;;;;;;2.15;75.72;101234.06;690926;28;90804;-63
2021/01/05 00:24:41;;;;;;;19.92;10.88;;;;;;;2.14;75.60;101238.50;694440;28;8579;-63
2021/01/05 00:25:06;;;;;;;20.77;10.88;;;;;;;2.13;75.87;101233.28;691549;28;67543;-63
2021/01/05 00:25:28;;;;;;;20.05;10.82;;;;;;;2.13;75.59;101231.50;690091;28;115987;-64
2021/01/05 00:25:50;;;;;;;21.73;11.50;;;;;;;2.14;75.71;101237.69;692650;28;45220;-64
2021/01/05 00:26:11;;;;;;;22.00;11.30;;;;;;;2.13;75.66;101239.50;692847;28;22546;-63
2021/01/05 00:26:34;;;;;;;21.85;10.77;;;;;;;2.14;75.58;101237.69;693022;28;46275;-64
2021/01/05 00:26:56;;;;;;;21.65;11.20;;;;;;;2.13;75.54;101228.84;692181;28;67273;-63
2021/01/05 00:27:17;;;;;;;20.85;10.80;;;;;;;2.13;75.62;101227.97;693610;28;23423;-64
2021/01/05 00:27:38;;;;;;;20.70;10.88;;;;;;;2.13;75.63;101234.16;693245;28;23431;-64
2021/01/05 00:27:59;;;;;;;20.97;10.93;;;;;;;2.13;75.65;101225.31;716725;22;44316;-61
2021/01/05 00:28:21;;;;;;;19.13;10.60;;;;;;;2.13;75.69;101228.84;689991;28;20516;-62
2021/01/05 00:28:42;;;;;;;22.50;10.57;;;;;;;2.10;75.73;101218.41;690145;28;38424;-61
2021/01/05 00:29:04;;;;;;;20.98;11.18;;;;;;;2.05;75.56;101217.84;691038;28;23476;-60
2021/01/05 00:29:25;;;;;;;20.52;10.88;;;;;;;2.13;75.65;101233.28;690864;28;22180;-62
2021/01/05 00:29:46;;;;;;;20.75;11.18;;;;;;;2.09;75.68;101218.50;690067;28;44331;-62
2021/01/05 00:30:10;;;;;;;20.92;11.27;;;;;;;2.13;75.78;101231.50;690767;28;22432;-63
2021/01/05 00:30:31;;;;;;;21.08;10.80;;;;;;;2.12;75.59;101226.28;691935;28;13592;-62
2021/01/05 00:30:53;;;;;;;21.13;10.80;;;;;;;2.11;75.48;101227.22;691107;28;23436;-61
2021/01/05 00:31:14;;;;;;;18.27;10.20;;;;;;;2.14;75.73;101233.19;690768;28;18285;-62
2021/01/05 00:31:35;;;;;;;20.08;10.10;;;;;;;2.14;75.36;101235.00;691384;28;1026;-62
2021/01/05 00:32:06;;;;;;;21.98;10.90;;;;;;;2.15;75.62;101240.22;690951;28;15227;-62
2021/01/05 00:32:27;;;;;;;21.17;11.20;;;;;;;2.14;75.67;101241.19;686553;28;136156;-64
2021/01/05 00:32:49;;;;;;;21.20;11.32;;;;;;;2.14;75.67;101243.84;690792;28;21535;-62
2021/01/05 00:33:11;;;;;;;21.15;11.32;;;;;;;2.14;75.61;101238.50;691622;28;45290;-63
2021/01/05 00:33:34;;;;;;;22.80;11.68;;;;;;;2.14;75.69;101237.69;689428;28;66265;-61
2021/01/05 00:33:55;;;;;;;22.63;11.23;;;;;;;2.14;75.76;101240.34;688831;28;69515;-62
2021/01/05 00:34:16;;;;;;;21.92;10.90;;;;;;;2.15;75.72;101240.22;687637;28;21547;-61
2021/01/05 00:34:39;;;;;;;22.40;11.38;;;;;;;2.13;75.74;101233.28;687526;28;23489;-60
2021/01/05 00:35:00;;;;;;;21.92;10.80;;;;;;;2.14;75.73;101229.69;686311;28;68285;-61
2021/01/05 00:35:31;;;;;;;20.45;11.18;;;;;;;2.14;75.76;101238.50;688265;28;932;-61
2021/01/05 00:35:52;;;;;;;20.58;10.80;;;;;;;2.15;75.63;101229.56;683188;28;161028;-61
2021/01/05 00:36:13;;;;;;;20.65;11.23;;;;;;;2.16;75.78;101230.41;689188;28;46928;-61
2021/01/05 00:36:36;;;;;;;22.40;11.27;;;;;;;2.16;75.71;101236.63;691035;28;18306;-60
2021/01/05 00:36:57;;;;;;;20.67;11.27;;;;;;;2.14;75.63;101230.53;685987;28;71497;-61
2021/01/05 00:37:19;;;;;;;24.48;11.88;;;;;;;2.13;75.79;101231.50;686819;28;45315;-62
2021/01/05 00:37:40;;;;;;;23.08;11.02;;;;;;;2.15;75.51;101239.38;687313;28;44392;-63
2021/01/05 00:38:04;;;;;;;20.88;10.18;;;;;;;2.15;75.62;101236.72;688430;28;23498;-61
2021/01/05 00:38:25;;;;;;;19.98;10.20;;;;;;;2.15;75.47;101236.72;682563;28;92313;-63
2021/01/05 00:38:46;;;;;;;20.10;10.10;;;;;;;2.10;75.55;101228.19;686578;28;22262;-61
2021/01/05 00:39:08;;;;;;;19.52;9.93;;;;;;;2.14;75.54;101235.84;688759;28;44414;-63
2021/01/05 00:39:30;;;;;;;21.30;10.38;;;;;;;2.13;75.46;101238.63;688931;28;22443;-63
2021/01/05 00:39:52;;;;;;;20.17;10.38;;;;;;;2.14;75.59;101235.00;688113;28;46347;-62
2021/01/05 00:40:14;;;;;;;18.92;11.05;;;;;;;2.14;75.62;101235.84;688429;28;45530;-63
2021/01/05 00:40:36;;;;;;;21.58;11.18;;;;;;;2.13;75.46;101236.84;689097;28;44247;-63
2021/01/05 00:40:58;;;;;;;19.77;11.23;;;;;;;2.13;75.47;101239.50;688345;28;46344;-62
2021/01/05 00:41:19;;;;;;;21.23;11.38;;;;;;;2.14;75.57;101235.00;688093;28;46423;-62
2021/01/05 00:41:41;;;;;;;21.80;11.02;;;;;;;2.14;75.60;101235.84;688601;28;31447;-63
2021/01/05 00:42:02;;;;;;;19.70;10.80;;;;;;;2.16;75.38;101235.75;689779;28;20612;-62
2021/01/05 00:42:24;;;;;;;21.10;10.88;;;;;;;2.14;75.40;101238.50;688831;28;22881;-62
2021/01/05 00:42:45;;;;;;;19.63;10.75;;;;;;;2.14;75.73;101238.50;687608;28;46377;-65
2021/01/05 00:43:08;;;;;;;20.13;10.63;;;;;;;2.13;75.54;101230.63;689573;28;44395;-63
2021/01/05 00:43:29;;;;;;;20.52;11.07;;;;;;;2.15;75.69;101244.72;687103;28;45243;-63
2021/01/05 00:43:50;;;;;;;18.90;10.27;;;;;;;2.15;75.61;101236.72;689680;28;22760;-63
2021/01/05 00:44:15;;;;;;;19.08;10.40;;;;;;;2.14;75.59;101238.50;685831;28;115114;-63
2021/01/05 00:44:37;;;;;;;18.75;11.20;;;;;;;2.16;75.77;101236.63;689157;28;21547;-63
2021/01/05 00:44:58;;;;;;;21.35;11.75;;;;;;;2.15;75.64;101237.56;688139;28;46353;-62
2021/01/05 00:45:21;;;;;;;22.35;11.57;;;;;;;2.11;75.58;101235.22;689481;28;22420;-62
2021/01/05 00:45:42;;;;;;;21.60;10.90;;;;;;;2.13;75.72;101233.28;687558;28;69212;-63
2021/01/05 00:46:09;;;;;;;20.92;10.73;;;;;;;2.14;75.55;101235.00;682450;28;137894;-64
2021/01/05 00:46:30;;;;;;;21.13;10.90;;;;;;;2.14;75.53;101230.53;683613;28;67470;-64
2021/01/05 00:46:52;;;;;;;22.90;11.05;;;;;;;2.12;75.64;101235.13;685068;28;44225;-63
2021/01/05 00:47:13;;;;;;;22.08;10.95;;;;;;;2.14;75.68;101235.84;686603;28;21526;-63
2021/01/05 00:47:35;;;;;;;18.50;10.15;;;;;;;2.14;75.71;101232.34;684152;28;22237;-61
2021/01/05 00:47:59;;;;;;;18.55;10.32;;;;;;;2.14;75.72;101232.34;683528;28;67504;-64
2021/01/05 00:48:20;;;;;;;20.25;10.50;;;;;;;2.15;75.68;101231.41;683280;28;69181;-63
2021/01/05 00:48:42;;;;;;;18.13;10.45;;;;;;;2.13;75.71;101227.97;683718;28;45159;-64
2021/01/05 00:49:03;;;;;;;19.73;11.10;;;;;;;2.13;75.66;101231.50;683230;28;22425;-64
2021/01/05 00:49:25;;;;;;;21.63;10.70;;;;;;;2.13;75.75;101234.16;682826;28;45527;-64
2021/01/05 00:49:47;;;;;;;18.92;10.60;;;;;;;2.14;75.71;101224.34;679689;28;44326;-63
2021/01/05 00:50:09;;;;;;;20.20;11.43;;;;;;;2.14;75.55;101227.84;681578;28;23114;-64
2021/01/05 00:50:31;;;;;;;22.80;11.68;;;;;;;2.13;75.67;101228.84;682160;28;67475;-62
2021/01/05 00:50:53;;;;;;;22.42;11.63;;;;;;;2.13;75.60;101230.63;682140;28;45130;-62
2021/01/05 00:51:15;;;;;;;23.27;11.82;;;;;;;2.15;75.60;101231.41;683927;28;22386;-61
2021/01/05 00:51:36;;;;;;;19.63;10.57;;;;;;;2.13;75.63;101227.97;682072;28;53277;-61
2021/01/05 00:51:58;;;;;;;21.15;11.52;;;;;;;2.15;75.59;101231.41;682875;28;22400;-62
2021/01/05 00:52:20;;;;;;;19.98;10.73;;;;;;;2.13;75.45;101231.50;679120;29;44378;-61
2021/01/05 00:52:42;;;;;;;20.58;10.60;;;;;;;2.13;75.50;101239.50;679750;28;46452;-62
2021/01/05 00:53:04;;;;;;;22.77;11.15;;;;;;;2.14;75.44;101235.00;679408;28;45229;-64
2021/01/05 00:53:26;;;;;;;20.45;11.15;;;;;;;2.13;75.63;101234.16;678442;28;45239;-62
2021/01/05 00:53:47;;;;;;;19.13;10.75;;;;;;;2.12;75.62;101231.63;679770;28;44504;-64
2021/01/05 00:54:09;;;;;;;21.10;10.95;;;;;;;2.14;75.47;101235.00;682817;28;21532;-62
2021/01/05 00:54:31;;;;;;;22.48;11.07;;;;;;;2.13;75.52;101234.16;683547;28;44377;-64
2021/01/05 00:54:53;;;;;;;20.50;10.98;;;;;;;2.14;75.48;101235.00;680126;28;46252;-62
2021/01/05 00:55:15;;;;;;;18.40;10.00;;;;;;;2.10;75.66;101222.84;681391;28;44377;-63
2021/01/05 00:55:40;;;;;;;18.13;10.32;;;;;;;2.12;75.58;101231.63;679045;28;114962;-63
2021/01/05 00:56:02;;;;;;;19.60;10.90;;;;;;;2.13;75.60;101236.84;682034;28;45063;-63
2021/01/05 00:56:23;;;;;;;19.42;10.90;;;;;;;2.14;75.83;101232.34;679151;29;45110;-62
2021/01/05 00:57:00;;;;;;;20.23;11.13;;;;;;;2.11;75.64;101230.75;679824;28;21539;-63
2021/01/05 00:57:22;;;;;;;20.52;10.55;;;;;;;2.13;75.57;101228.84;675074;29;137319;-63
2021/01/05 00:57:45;;;;;;;18.50;10.40;;;;;;;2.12;75.66;101229.78;680701;28;69304;-63
2021/01/05 00:58:06;;;;;;;19.00;11.07;;;;;;;2.05;75.66;101217.84;681963;28;46264;-63
2021/01/05 00:58:27;;;;;;;20.73;11.18;;;;;;;2.13;75.72;101236.84;682556;28;22386;-63
2021/01/05 00:58:49;;;;;;;19.67;10.13;;;;;;;2.13;75.62;101223.50;684096;28;22391;-62
2021/01/05 00:59:11;;;;;;;18.17;10.52;;;;;;;2.13;75.58;101226.19;683940;28;45172;-63
2021/01/05 00:59:32;;;;;;;18.45;11.07;;;;;;;2.12;75.50;101220.94;683262;28;21506;-63
2021/01/05 00:59:53;;;;;;;19.52;10.75;;;;;;;2.10;75.60;101212.19;682359;28;46337;-63
2021/01/05 01:00:19;;;;;;;18.38;10.55;;;;;;;2.09;75.59;101216.69;683528;28;22375;-62
2021/01/05 01:00:41;;;;;;;22.05;11.48;;;;;;;2.12;75.51;101227.13;679522;28;160937;-63
2021/01/05 01:01:08;;;;;;;19.60;10.82;;;;;;;2.08;75.58;101216.78;679612;28;137957;-63
2021/01/05 01:01:30;;;;;;;16.73;9.98;;;;;;;2.09;75.51;101213.19;681130;29;22431;-63
2021/01/05 01:01:51;;;;;;;19.77;9.90;;;;;;;2.12;75.65;101216.47;681058;29;20205;-63
2021/01/05 01:02:14;;;;;;;19.30;10.65;;;;;;;2.11;75.76;101213.91;681509;28;44264;-63
2021/01/05 01:02:36;;;;;;;20.60;10.43;;;;;;;2.12;75.55;101220.94;681587;28;90741;-63
2021/01/05 01:02:58;;;;;;;19.27;10.30;;;;;;;2.11;75.71;101217.41;684839;28;22417;-63
2021/01/05 01:03:26;;;;;;;20.48;10.77;;;;;;;2.08;75.67;101206.97;680063;28;61605;-63
2021/01/05 01:03:49;;;;;;;18.75;10.43;;;;;;;2.11;75.60;101220.09;681045;28;1019;-64
2021/01/05 01:04:11;;;;;;;18.92;10.68;;;;;;;2.12;75.53;101227.13;680915;28;1121;-64
2021/01/05 01:04:33;;;;;;;20.58;11.05;;;;;;;2.13;75.73;101222.63;679526;28;38451;-64
2021/01/05 01:04:56;;;;;;;19.73;10.57;;;;;;;2.12;75.69;101227.13;680959;28;59020;-62
2021/01/05 01:05:18;;;;;;;18.38;10.40;;;;;;;2.13;75.69;101227.97;680103;28;46482;-62
2021/01/05 01:05:41;;;;;;;23.02;10.55;;;;;;;2.13;75.64;101227.97;680810;28;68363;-64
2021/01/05 01:06:06;;;;;;;19.88;10.48;;;;;;;2.13;75.71;101233.28;680191;28;92268;-63
2021/01/05 01:06:28;;;;;;;20.85;10.85;;;;;;;2.13;75.70;101233.28;682258;28;69331;-63
2021/01/05 01:06:50;;;;;;;20.50;10.68;;;;;;;2.13;75.65;101227.97;683690;28;67515;-63
2021/01/05 01:07:12;;;;;;;19.70;10.40;;;;;;;2.12;75.63;101221.78;685247;28;23410;-63
2021/01/05 01:07:34;;;;;;;20.40;10.07;;;;;;;2.13;75.85;101226.19;682069;28;46538;-63
2021/01/05 01:07:58;;;;;;;17.60;9.95;;;;;;;2.12;75.69;101221.78;683416;28;46441;-63
2021/01/05 01:08:21;;;;;;;18.63;10.60;;;;;;;2.14;75.61;101230.53;680749;28;113629;-63
2021/01/05 01:08:52;;;;;;;19.52;10.40;;;;;;;2.14;75.77;101225.19;678299;29;60241;-63
2021/01/05 01:09:15;;;;;;;19.48;10.07;;;;;;;2.13;75.71;101226.19;678495;29;1012;-63
2021/01/05 01:09:37;;;;;;;18.55;10.60;;;;;;;2.12;75.78;101218.28;677680;29;39969;-62
2021/01/05 01:10:00;;;;;;;21.88;10.85;;;;;;;2.14;75.68;101229.69;677718;29;46433;-62
2021/01/05 01:10:28;;;;;;;21.13;10.68;;;;;;;2.13;75.74;101222.63;675678;29;92091;-62
2021/01/05 01:10:50;;;;;;;21.00;11.27;;;;;;;2.14;75.59;101227.00;678854;28;138517;-63
2021/01/05 01:11:14;;;;;;;18.95;10.85;;;;;;;2.14;75.47;101227.00;682714;28;92287;-64
2021/01/05 01:11:37;;;;;;;17.25;10.05;;;;;;;2.13;75.64;101223.50;684020;28;1085;-61
2021/01/05 01:12:03;;;;;;;19.17;10.43;;;;;;;2.13;75.80;101230.63;681180;28;69458;-62
2021/01/05 01:12:27;;;;;;;19.73;10.80;;;;;;;2.14;75.35;101227.00;675398;29;137033;-62
2021/01/05 01:12:52;;;;;;;19.17;10.45;;;;;;;2.13;75.66;101233.28;676682;29;113562;-64
2021/01/05 01:13:18;;;;;;;20.50;10.52;;;;;;;2.13;75.52;101230.63;679990;28;60353;-62
2021/01/05 01:13:40;;;;;;;19.10;10.60;;;;;;;2.10;75.57;101223.72;683854;28;44765;-63
2021/01/05 01:14:02;;;;;;;18.30;10.82;;;;;;;2.13;75.56;101231.50;685874;28;21490;-62
2021/01/05 01:14:23;;;;;;;19.38;10.50;;;;;;;2.14;75.68;101232.34;685864;28;44395;-63
2021/01/05 01:14:46;;;;;;;21.13;11.15;;;;;;;2.13;75.63;101234.16;684509;28;45258;-63
2021/01/05 01:15:11;;;;;;;22.13;10.93;;;;;;;2.14;75.60;101232.34;682794;28;114506;-63
2021/01/05 01:15:32;;;;;;;22.15;10.48;;;;;;;2.06;75.61;101216.91;684644;28;44421;-61
2021/01/05 01:15:55;;;;;;;21.75;10.80;;;;;;;2.14;75.74;101235.84;678207;29;69430;-61
2021/01/05 01:16:16;;;;;;;22.52;10.88;;;;;;;2.14;75.67;101235.00;677352;29;23458;-61
2021/01/05 01:16:38;;;;;;;18.73;10.57;;;;;;;2.12;75.71;101231.63;675508;29;46461;-61
2021/01/05 01:17:00;;;;;;;19.77;10.93;;;;;;;2.14;75.71;101235.00;677367;29;22416;-61
2021/01/05 01:17:22;;;;;;;20.80;11.38;;;;;;;2.13;75.62;101228.84;674629;29;44387;-60
2021/01/05 01:17:45;;;;;;;20.02;10.90;;;;;;;2.13;75.54;101231.50;676735;29;91528;-61
2021/01/05 01:18:10;;;;;;;20.10;10.90;;;;;;;2.14;75.64;101237.69;676338;29;115058;-62
2021/01/05 01:18:35;;;;;;;19.88;10.40;;;;;;;2.13;75.76;101238.63;679794;28;104281;-63
2021/01/05 01:18:58;;;;;;;19.90;10.60;;;;;;;2.11;75.64;101236.06;681615;28;62324;-62
2021/01/05 01:19:20;;;;;;;18.55;10.50;;;;;;;2.13;75.81;101234.16;683905;28;979;-59
2021/01/05 01:19:43;;;;;;;20.10;10.95;;;;;;;2.14;75.59;101237.69;682587;28;46420;-62
2021/01/05 01:20:06;;;;;;;17.52;10.15;;;;;;;2.12;75.65;101237.78;681787;28;44173;-62
2021/01/05 01:20:29;;;;;;;18.02;10.10;;;;;;;2.14;75.66;101237.69;678438;28;113574;-63
2021/01/05 01:20:51;;;;;;;20.27;10.63;;;;;;;2.14;75.57;101241.19;678061;29;44387;-63
2021/01/05 01:21:19;;;;;;;20.65;10.95;;;;;;;2.14;75.71;101243.00;675418;29;138043;-63
2021/01/05 01:21:44;;;;;;;18.75;10.43;;;;;;;2.13;75.71;101241.28;681545;29;1042;-63
2021/01/05 01:22:06;;;;;;;18.35;10.25;;;;;;;2.12;75.71;101239.59;680298;28;136430;-62
2021/01/05 01:22:27;;;;;;;18.65;10.27;;;;;;;2.13;75.69;101244.81;683888;28;21531;-63
2021/01/05 01:23:00;;;;;;;18.52;10.32;;;;;;;2.14;75.59;101246.50;680094;28;135978;-62
2021/01/05 01:23:22;;;;;;;20.25;10.95;;;;;;;2.14;75.67;101243.84;681581;28;46216;-62
2021/01/05 01:23:46;;;;;;;19.23;10.32;;;;;;;2.14;75.62;101241.19;677820;29;90893;-63
2021/01/05 01:24:08;;;;;;;19.50;10.40;;;;;;;2.14;75.48;101241.19;680642;29;46402;-63
2021/01/05 01:24:30;;;;;;;19.27;11.13;;;;;;;2.15;75.63;101252.72;682737;28;22524;-63
2021/01/05 01:24:52;;;;;;;20.48;11.25;;;;;;;2.08;75.46;101232.78;681654;28;67343;-63
2021/01/05 01:25:21;;;;;;;21.13;11.07;;;;;;;2.14;75.72;101243.84;680766;28;161065;-62
2021/01/05 01:25:43;;;;;;;21.45;10.73;;;;;;;2.14;75.64;101243.84;682274;28;69727;-61
2021/01/05 01:26:06;;;;;;;18.70;10.00;;;;;;;2.11;75.65;101246.72;678508;29;69219;-62
2021/01/05 01:26:27;;;;;;;22.05;10.70;;;;;;;2.13;75.68;101244.81;680458;29;23471;-61
2021/01/05 01:26:49;;;;;;;20.80;10.45;;;;;;;2.14;75.53;101256.31;677926;29;46437;-62
2021/01/05 01:27:11;;;;;;;18.92;10.70;;;;;;;2.13;75.72;101247.50;674222;29;45216;-62
2021/01/05 01:27:33;;;;;;;17.75;10.25;;;;;;;2.12;75.71;101242.28;674284;29;46401;-60
2021/01/05 01:27:58;;;;;;;20.35;10.75;;;;;;;2.12;75.74;101248.44;676581;29;44380;-63
2021/01/05 01:28:27;;;;;;;21.10;10.57;;;;;;;2.13;75.73;101249.28;676659;29;137696;-62
2021/01/05 01:28:49;;;;;;;21.30;10.85;;;;;;;2.14;75.72;101248.34;679043;29;21491;-63
2021/01/05 01:29:15;;;;;;;19.23;10.10;;;;;;;2.12;75.80;101245.78;679674;29;67495;-62
2021/01/05 01:29:36;;;;;;;18.25;10.60;;;;;;;2.13;75.69;101251.94;678544;29;115794;-59
2021/01/05 01:29:58;;;;;;;18.60;10.95;;;;;;;2.13;75.72;101249.28;679419;28;46358;-62
2021/01/05 01:30:21;;;;;;;19.20;11.23;;;;;;;2.10;75.68;101250.38;680279;29;22400;-62
2021/01/05 01:30:50;;;;;;;20.48;11.00;;;;;;;2.13;75.70;101249.28;679812;28;109833;-61
2021/01/05 01:31:16;;;;;;;18.83;10.90;;;;;;;2.13;75.63;101254.63;676524;29;136792;-62
2021/01/05 01:31:38;;;;;;;18.85;10.95;;;;;;;2.13;75.85;101254.63;680387;28;23557;-62
2021/01/05 01:31:59;;;;;;;18.60;10.25;;;;;;;2.11;75.70;101246.72;680606;29;45269;-62
2021/01/05 01:32:21;;;;;;;18.05;10.60;;;;;;;2.11;75.71;101246.72;684918;28;995;-61
2021/01/05 01:32:42;;;;;;;18.58;10.60;;;;;;;2.13;75.69;101259.94;682749;28;46417;-62
2021/01/05 01:33:05;;;;;;;17.67;10.35;;;;;;;2.13;75.68;101255.50;681724;28;44371;-61
2021/01/05 01:33:28;;;;;;;19.77;11.15;;;;;;;2.13;75.78;101247.50;676241;29;90810;-58
2021/01/05 01:33:56;;;;;;;18.30;10.50;;;;;;;2.12;75.73;101250.25;676251;29;137910;-57
2021/01/05 01:34:20;;;;;;;21.23;10.77;;;;;;;2.06;75.78;101238.22;681517;28;44173;-58
2021/01/05 01:34:42;;;;;;;19.83;10.45;;;;;;;2.12;75.69;101253.78;678092;29;115106;-57
2021/01/05 01:35:05;;;;;;;21.83;10.63;;;;;;;2.12;75.49;101248.44;684355;28;988;-60
2021/01/05 01:35:28;;;;;;;21.40;10.68;;;;;;;2.13;75.62;101250.16;686776;28;1103;-61
2021/01/05 01:35:51;;;;;;;20.00;11.00;;;;;;;2.13;75.73;101249.28;685827;28;15128;-61
2021/01/05 01:36:13;;;;;;;19.33;11.15;;;;;;;2.12;75.74;101248.44;684792;28;45372;-62
2021/01/05 01:36:35;;;;;;;18.77;10.65;;;;;;;2.12;75.52;101248.44;684405;28;2576;-62
2021/01/05 01:36:59;;;;;;;19.83;10.65;;;;;;;2.12;75.66;101245.78;683639;28;23309;-62
2021/01/05 01:37:20;;;;;;;18.98;10.30;;;;;;;2.13;75.63;101249.28;676629;29;92389;-61
2021/01/05 01:37:48;;;;;;;19.70;10.82;;;;;;;2.12;75.49;101245.78;672569;29;138061;-62
2021/01/05 01:38:11;;;;;;;18.23;10.52;;;;;;;2.13;75.48;101246.63;674876;29;92294;-62
2021/01/05 01:38:42;;;;;;;22.92;10.73;;;;;;;2.13;75.58;101243.97;675471;29;127364;-64
2021/01/05 01:39:05;;;;;;;18.45;10.68;;;;;;;2.11;75.56;101244.06;679352;29;44370;-64
2021/01/05 01:39:29;;;;;;;19.90;10.35;;;;;;;2.12;75.61;101243.13;683817;28;912;-62
2021/01/05 01:39:50;;;;;;;21.90;10.23;;;;;;;2.11;75.64;101241.41;683404;28;92028;-61
2021/01/05 01:40:32;;;;;;;21.00;10.88;;;;;;;2.10;75.79;101253.03;676006;29;137838;-64
2021/01/05 01:40:54;;;;;;;19.05;10.82;;;;;;;2.12;75.67;101251.09;679243;28;137480;-60
2021/01/05 01:41:27;;;;;;;21.90;11.23;;;;;;;2.12;76.05;101248.44;681424;28;137403;-58
2021/01/05 01:41:53;;;;;;;21.65;11.50;;;;;;;2.10;75.67;101247.72;679454;28;132339;-61
2021/01/05 01:42:17;;;;;;;21.17;11.43;;;;;;;2.13;75.78;101257.28;684832;28;24946;-60
2021/01/05 01:42:38;;;;;;;21.45;11.18;;;;;;;2.12;75.64;101251.09;682958;28;90858;-58
2021/01/05 01:43:01;;;;;;;20.10;10.82;;;;;;;2.13;75.68;101258.16;682724;28;44385;-62
2021/01/05 01:43:22;;;;;;;20.58;11.30;;;;;;;2.14;75.78;101253.66;681394;28;46489;-62
2021/01/05 01:43:45;;;;;;;21.88;11.77;;;;;;;2.13;75.44;101255.50;682998;28;69763;-63
2021/01/05 01:44:18;;;;;;;19.63;10.82;;;;;;;2.14;75.73;101259.84;680877;28;159176;-64
2021/01/05 01:44:42;;;;;;;19.50;10.68;;;;;;;2.14;75.76;101257.16;678883;28;136704;-62
2021/01/05 01:45:07;;;;;;;20.58;11.23;;;;;;;2.15;75.80;101252.72;678675;28;138437;-61
2021/01/05 01:45:29;;;;;;;19.88;11.32;;;;;;;2.12;75.65;101253.78;681568;28;13470;-61